Time;durP1;ratioP1;P1;durP2;ratioP2;P2;SDS_P1;SDS_P2;PMS_P1;PMS_P2;Temp;Humidity;BMP_temperature;BMP_pressure;BME280_temperature;BME280_humidity;BME280_pressure;Samples;Min_cycle;Max_cycle;Signal;HPM_P1;HPM_P2
2021/10/26 00:01:39;;;;;;;10.33;9.40;;;8.80;99.90;;;;;;4952447;28;20674;-80
2021/10/26 00:04:07;;;;;;;13.43;9.90;;;8.80;99.90;;;;;;4985405;28;20401;-80
2021/10/26 00:06:36;;;;;;;11.50;9.73;;;8.80;99.90;;;;;;4984866;28;20444;-79
2021/10/26 00:09:04;;;;;;;11.90;10.70;;;8.70;99.90;;;;;;4985471;28;20603;-80
2021/10/26 00:11:33;;;;;;;10.87;9.03;;;8.90;99.90;;;;;;5003631;28;20416;-80
2021/10/26 00:13:58;;;;;;;8.93;8.03;;;9.10;99.90;;;;;;5005002;28;20412;-80
2021/10/26 00:16:25;;;;;;;12.17;10.50;;;9.30;99.90;;;;;;4972115;28;20405;-79
2021/10/26 00:18:53;;;;;;;12.10;10.17;;;9.50;99.90;;;;;;5004502;28;20399;-80
2021/10/26 00:21:28;;;;;;;13.90;11.10;;;9.30;99.90;;;;;;5006529;28;20804;-79
2021/10/26 00:23:56;;;;;;;11.53;10.33;;;9.10;99.90;;;;;;5006794;28;20396;-80
2021/10/26 00:26:22;;;;;;;14.63;9.10;;;9.10;99.90;;;;;;5004972;28;20415;-80
2021/10/26 00:28:48;;;;;;;15.50;10.87;;;9.30;99.90;;;;;;4989813;28;20408;-80
2021/10/26 00:31:14;;;;;;;20.80;10.70;;;9.40;99.90;;;;;;5006962;28;20162;-80
2021/10/26 00:33:47;;;;;;;10.30;9.03;;;9.50;99.90;;;;;;5023970;28;20404;-80
2021/10/26 00:36:14;;;;;;;11.47;10.00;;;9.10;99.90;;;;;;5007440;28;20448;-80
2021/10/26 00:38:43;;;;;;;13.63;9.53;;;9.10;99.90;;;;;;5007702;28;20401;-80
2021/10/26 00:41:10;;;;;;;11.87;8.97;;;9.10;99.90;;;;;;4990824;28;20411;-80
2021/10/26 00:43:37;;;;;;;15.23;10.03;;;8.80;99.90;;;;;;4967699;28;20406;-80
2021/10/26 00:46:03;;;;;;;13.43;9.80;;;8.80;99.90;;;;;;4984349;28;20406;-80
2021/10/26 00:48:31;;;;;;;12.20;10.20;;;9.00;99.90;;;;;;4939448;28;20457;-80
2021/10/26 00:51:20;;;;;;;15.30;8.73;;;9.00;99.90;;;;;;4987795;28;20174;-80
2021/10/26 00:53:48;;;;;;;15.30;10.40;;;8.90;99.90;;;;;;4970590;28;20459;-80
2021/10/26 00:56:14;;;;;;;13.40;10.10;;;8.80;99.90;;;;;;4970956;28;20508;-80
2021/10/26 00:58:42;;;;;;;13.40;10.27;;;8.80;99.90;;;;;;4947476;29;20412;-80
2021/10/26 01:01:07;;;;;;;13.73;10.67;;;8.70;99.90;;;;;;4916061;29;20400;-80
2021/10/26 01:03:34;;;;;;;13.20;10.67;;;8.70;99.90;;;;;;4908863;29;20434;-80
2021/10/26 01:06:00;;;;;;;15.73;10.47;;;8.70;99.90;;;;;;4927040;29;20195;-80
2021/10/26 01:08:27;;;;;;;13.00;10.47;;;8.80;99.90;;;;;;4948580;28;20416;-80
2021/10/26 01:10:54;;;;;;;15.63;10.70;;;8.90;99.90;;;;;;4897888;29;20184;-80
2021/10/26 01:13:23;;;;;;;13.70;10.93;;;8.90;99.90;;;;;;4912765;29;20483;-80
2021/10/26 01:15:54;;;;;;;17.03;11.40;;;8.80;99.90;;;;;;4954512;28;20935;-80
2021/10/26 01:18:24;;;;;;;16.30;11.07;;;8.80;99.90;;;;;;4958748;28;20449;-79
2021/10/26 01:20:53;;;;;;;15.70;10.80;;;8.80;99.90;;;;;;4987504;28;20453;-80
2021/10/26 01:23:23;;;;;;;15.33;10.90;;;8.80;99.90;;;;;;4983026;28;20500;-80
2021/10/26 01:25:52;;;;;;;11.50;10.23;;;8.60;99.90;;;;;;4965112;29;20415;-80
2021/10/26 01:28:19;;;;;;;15.10;10.80;;;8.50;99.90;;;;;;4933318;29;20415;-80
2021/10/26 01:30:49;;;;;;;13.60;9.70;;;8.50;99.90;;;;;;4938202;28;20749;-80
2021/10/26 01:33:15;;;;;;;26.53;12.97;;;8.50;99.90;;;;;;4968740;28;20477;-80
2021/10/26 01:35:41;;;;;;;13.40;10.40;;;8.50;99.90;;;;;;4969321;28;20437;-80
2021/10/26 01:38:08;;;;;;;13.93;11.10;;;8.40;99.90;;;;;;4969431;28;20458;-80
2021/10/26 01:40:37;;;;;;;14.50;10.40;;;8.30;99.90;;;;;;4966747;28;20393;-80
2021/10/26 01:43:09;;;;;;;15.47;10.60;;;8.30;99.90;;;;;;4957400;28;20405;-80
2021/10/26 01:45:36;;;;;;;14.60;11.20;;;8.20;99.90;;;;;;4988868;28;20776;-80
2021/10/26 01:48:01;;;;;;;15.53;11.40;;;8.40;99.90;;;;;;4988845;28;20540;-80
2021/10/26 01:50:29;;;;;;;11.77;9.40;;;8.40;99.90;;;;;;4985330;28;20486;-80
2021/10/26 01:52:55;;;;;;;13.90;11.47;;;8.50;99.90;;;;;;4970217;29;20483;-78
2021/10/26 01:55:21;;;;;;;18.37;12.17;;;8.40;99.90;;;;;;4922195;29;20504;-79
2021/10/26 01:57:47;;;;;;;18.50;12.60;;;8.50;99.90;;;;;;4888937;29;20277;-80
2021/10/26 02:00:14;;;;;;;14.33;11.00;;;8.50;99.90;;;;;;4872756;29;20526;-80
2021/10/26 02:02:41;;;;;;;12.50;9.93;;;8.50;99.90;;;;;;4873536;29;20433;-80
2021/10/26 02:05:08;;;;;;;14.53;10.50;;;8.40;99.90;;;;;;4858230;29;20935;-80
2021/10/26 02:07:38;;;;;;;14.80;10.67;;;8.40;99.90;;;;;;4817284;29;20415;-80
2021/10/26 02:10:05;;;;;;;15.50;10.37;;;8.30;99.90;;;;;;4811346;29;20422;-80
2021/10/26 02:12:34;;;;;;;16.03;11.40;;;8.20;99.90;;;;;;4810639;29;20469;-79
2021/10/26 02:15:01;;;;;;;14.00;11.30;;;8.40;99.90;;;;;;4810589;29;20410;-79
2021/10/26 02:17:49;;;;;;;13.23;10.53;;;8.40;99.90;;;;;;4821014;29;20469;-80
2021/10/26 02:20:18;;;;;;;13.07;10.47;;;8.30;99.90;;;;;;4814537;29;20516;-80
2021/10/26 02:22:48;;;;;;;13.23;11.27;;;8.30;99.90;;;;;;4816670;29;20449;-81
2021/10/26 02:25:14;;;;;;;13.97;10.50;;;8.50;99.90;;;;;;4834885;29;20425;-80
2021/10/26 02:27:41;;;;;;;15.50;10.83;;;8.50;99.90;;;;;;4854479;29;20415;-80
2021/10/26 02:30:09;;;;;;;13.23;10.70;;;8.40;99.90;;;;;;4870178;29;20251;-80
2021/10/26 02:32:41;;;;;;;13.23;10.47;;;8.30;99.90;;;;;;4870493;29;20558;-79
2021/10/26 02:35:12;;;;;;;11.33;10.17;;;8.20;99.90;;;;;;4869974;29;20467;-80
2021/10/26 02:37:38;;;;;;;13.47;10.23;;;8.20;99.90;;;;;;4874983;29;21408;-80
2021/10/26 02:40:11;;;;;;;15.90;11.00;;;8.20;99.90;;;;;;4892500;29;20526;-80
2021/10/26 02:42:42;;;;;;;13.47;10.50;;;8.20;99.90;;;;;;4913052;29;20409;-80
2021/10/26 02:45:11;;;;;;;12.57;9.80;;;8.00;99.90;;;;;;4927764;29;20408;-80
2021/10/26 02:47:38;;;;;;;17.20;10.57;;;8.00;99.90;;;;;;4911244;29;20379;-80
2021/10/26 02:50:07;;;;;;;17.43;12.30;;;7.80;99.90;;;;;;4908474;29;20421;-80
2021/10/26 02:52:36;;;;;;;11.37;9.93;;;7.80;99.90;;;;;;4909057;29;20502;-80
2021/10/26 02:55:03;;;;;;;16.17;10.83;;;7.70;99.90;;;;;;4908384;29;20410;-80
2021/10/26 02:57:30;;;;;;;15.30;10.87;;;7.80;99.90;;;;;;4901601;29;20413;-80
2021/10/26 02:59:57;;;;;;;11.97;9.70;;;7.80;99.90;;;;;;4927693;29;20511;-80
2021/10/26 03:02:44;;;;;;;12.37;10.17;;;7.90;99.90;;;;;;4927382;29;20185;-80
2021/10/26 03:05:12;;;;;;;20.60;11.90;;;8.00;99.90;;;;;;4931439;29;20419;-80
2021/10/26 03:07:58;;;;;;;15.13;10.83;;;8.00;99.90;;;;;;4927691;29;20444;-80
2021/10/26 03:10:30;;;;;;;14.60;10.10;;;8.00;99.90;;;;;;4930758;29;20470;-80
2021/10/26 03:13:07;;;;;;;16.60;10.33;;;8.00;99.90;;;;;;4936312;29;20498;-80
2021/10/26 03:15:37;;;;;;;15.43;10.50;;;8.00;99.90;;;;;;4927560;29;20394;-79
2021/10/26 03:18:04;;;;;;;13.40;10.67;;;8.10;99.90;;;;;;4927782;29;20469;-80
2021/10/26 03:20:33;;;;;;;13.60;11.07;;;8.10;99.90;;;;;;4933725;29;20407;-80
2021/10/26 03:23:02;;;;;;;15.27;11.93;;;8.20;99.90;;;;;;4949652;29;20486;-79
2021/10/26 03:25:36;;;;;;;13.20;10.60;;;8.30;99.90;;;;;;4950256;29;20804;-80
2021/10/26 03:28:06;;;;;;;18.27;12.20;;;8.20;99.90;;;;;;4950553;29;20383;-80
2021/10/26 03:30:33;;;;;;;16.73;11.47;;;8.40;99.90;;;;;;4930408;29;20427;-80
2021/10/26 03:33:21;;;;;;;13.93;11.57;;;8.40;99.90;;;;;;4930679;29;20463;-79
2021/10/26 03:36:11;;;;;;;12.43;10.30;;;8.30;99.90;;;;;;4930983;28;20435;-80
2021/10/26 03:38:42;;;;;;;15.30;9.37;;;8.20;99.90;;;;;;4921615;29;20406;-80
2021/10/26 03:41:13;;;;;;;18.43;11.13;;;8.10;99.90;;;;;;4923786;29;20401;-80
2021/10/26 03:43:39;;;;;;;12.40;8.80;;;8.00;99.90;;;;;;4924319;29;20413;-80
2021/10/26 03:46:09;;;;;;;12.20;10.40;;;8.00;99.90;;;;;;4906698;29;20424;-79
2021/10/26 03:48:36;;;;;;;15.27;10.87;;;8.20;99.90;;;;;;4870344;29;20487;-80
2021/10/26 03:51:08;;;;;;;12.57;9.50;;;8.10;99.90;;;;;;4870827;29;20407;-80
2021/10/26 03:53:43;;;;;;;11.47;9.63;;;8.20;99.90;;;;;;4874031;29;20466;-79
2021/10/26 03:56:09;;;;;;;13.47;9.50;;;8.10;99.90;;;;;;4863950;29;20475;-79
2021/10/26 03:58:40;;;;;;;17.80;9.83;;;8.00;99.90;;;;;;4877327;29;20411;-79
2021/10/26 04:01:11;;;;;;;15.50;12.37;;;8.20;99.90;;;;;;4893751;29;20531;-80
2021/10/26 04:03:41;;;;;;;10.17;9.10;;;8.00;99.90;;;;;;4892389;29;20437;-80
2021/10/26 04:06:09;;;;;;;13.13;10.07;;;7.90;99.90;;;;;;4878395;29;20454;-80
2021/10/26 04:08:44;;;;;;;11.60;9.30;;;7.90;99.90;;;;;;4886955;29;20449;-80
2021/10/26 04:11:20;;;;;;;10.03;9.07;;;7.80;99.90;;;;;;4887529;29;20425;-81
2021/10/26 04:13:48;;;;;;;12.30;8.93;;;7.90;99.90;;;;;;4886324;29;20462;-79
2021/10/26 04:16:34;;;;;;;20.07;10.00;;;7.80;99.90;;;;;;4848983;29;20417;-80
2021/10/26 04:18:59;;;;;;;15.90;10.53;;;7.90;99.90;;;;;;4872631;29;20426;-80
2021/10/26 04:21:26;;;;;;;15.30;9.70;;;7.90;99.90;;;;;;4903462;29;20328;-79
2021/10/26 04:23:53;;;;;;;15.80;9.27;;;8.00;99.90;;;;;;4876589;29;20434;-80
2021/10/26 04:26:22;;;;;;;9.67;8.27;;;7.80;99.90;;;;;;4897986;29;20499;-80
2021/10/26 04:28:49;;;;;;;14.50;9.63;;;7.90;99.90;;;;;;4912781;29;20890;-80
2021/10/26 04:31:17;;;;;;;14.27;9.47;;;7.70;99.90;;;;;;4911475;29;20424;-80
2021/10/26 04:33:44;;;;;;;17.53;11.20;;;7.70;99.90;;;;;;4895325;29;20444;-80
2021/10/26 04:36:12;;;;;;;11.17;9.90;;;7.70;99.90;;;;;;4909701;29;20459;-80
2021/10/26 04:38:38;;;;;;;10.70;9.57;;;7.70;99.90;;;;;;4907734;29;20465;-80
2021/10/26 04:41:07;;;;;;;13.43;9.80;;;7.60;99.90;;;;;;4893594;29;20401;-79
2021/10/26 04:43:35;;;;;;;12.47;9.20;;;7.70;99.90;;;;;;4909582;29;20508;-79
2021/10/26 04:46:03;;;;;;;12.87;10.00;;;7.80;99.90;;;;;;4911489;29;20417;-80
2021/10/26 04:48:31;;;;;;;10.70;9.60;;;7.80;99.90;;;;;;4898351;29;20413;-80
2021/10/26 04:50:58;;;;;;;18.63;11.87;;;7.80;99.90;;;;;;4926206;29;20524;-80
2021/10/26 04:53:24;;;;;;;15.73;10.70;;;7.80;99.90;;;;;;4926046;29;20468;-80
2021/10/26 04:55:51;;;;;;;10.50;9.23;;;8.00;99.90;;;;;;4853801;29;20444;-80
2021/10/26 04:58:18;;;;;;;16.27;11.97;;;8.10;99.90;;;;;;4837285;29;20440;-80
2021/10/26 05:00:45;;;;;;;15.40;10.33;;;8.00;99.90;;;;;;4825281;29;20921;-79
2021/10/26 05:03:11;;;;;;;12.30;10.60;;;8.00;99.90;;;;;;4840032;29;20428;-80
2021/10/26 05:05:36;;;;;;;21.27;11.70;;;7.80;99.90;;;;;;4844650;29;20408;-80
2021/10/26 05:08:17;;;;;;;13.57;10.00;;;7.70;99.90;;;;;;4922758;29;20402;-78
2021/10/26 05:11:03;;;;;;;15.73;9.57;;;7.90;99.90;;;;;;4870515;29;20423;-80
2021/10/26 05:13:32;;;;;;;14.37;9.73;;;7.80;99.90;;;;;;4852991;29;20466;-79
2021/10/26 05:16:03;;;;;;;16.40;10.40;;;7.90;99.90;;;;;;4874547;29;20419;-80
2021/10/26 05:18:39;;;;;;;14.90;10.47;;;7.90;99.90;;;;;;4875586;29;20442;-80
2021/10/26 05:21:06;;;;;;;23.03;11.43;;;7.90;99.90;;;;;;4860404;29;20434;-80
2021/10/26 05:23:34;;;;;;;14.27;9.93;;;7.90;99.90;;;;;;4859791;29;20434;-80
2021/10/26 05:26:05;;;;;;;15.47;9.90;;;7.80;99.90;;;;;;4867289;29;20420;-80
2021/10/26 05:28:37;;;;;;;11.33;9.10;;;7.80;99.90;;;;;;4913108;29;20420;-80
2021/10/26 05:31:11;;;;;;;21.73;9.70;;;7.90;99.90;;;;;;4906836;29;20426;-81
2021/10/26 05:33:39;;;;;;;11.60;10.43;;;8.00;99.90;;;;;;4865436;29;20816;-80
2021/10/26 05:36:05;;;;;;;12.53;10.70;;;8.00;99.90;;;;;;4887784;29;20435;-80
2021/10/26 05:38:32;;;;;;;11.63;10.30;;;7.80;99.90;;;;;;4846523;29;20500;-80
2021/10/26 05:40:58;;;;;;;12.47;8.93;;;7.70;99.90;;;;;;4846804;29;20891;-80
2021/10/26 05:43:25;;;;;;;21.53;9.80;;;7.70;99.90;;;;;;4832685;29;20438;-80
2021/10/26 05:45:52;;;;;;;17.33;10.60;;;7.60;99.90;;;;;;4836165;29;20445;-81
2021/10/26 05:48:20;;;;;;;12.70;10.90;;;7.70;99.90;;;;;;4820246;29;20429;-80
2021/10/26 05:50:48;;;;;;;18.70;10.10;;;7.80;99.90;;;;;;4821249;29;20428;-80
2021/10/26 05:53:14;;;;;;;16.80;10.93;;;7.90;99.90;;;;;;4801570;29;20466;-78
2021/10/26 05:55:43;;;;;;;11.53;10.27;;;7.80;99.90;;;;;;4816382;29;20422;-79
2021/10/26 05:58:11;;;;;;;14.03;9.70;;;7.80;99.90;;;;;;4801163;29;20454;-80
2021/10/26 06:00:43;;;;;;;18.57;11.77;;;7.90;99.90;;;;;;4837661;29;20424;-80
2021/10/26 06:03:12;;;;;;;12.17;10.00;;;7.90;99.90;;;;;;4836572;29;20535;-79
2021/10/26 06:05:38;;;;;;;13.63;10.27;;;7.80;99.90;;;;;;4835981;29;20480;-79
2021/10/26 06:08:06;;;;;;;12.70;10.30;;;7.70;99.90;;;;;;4845635;29;20479;-78
2021/10/26 06:10:33;;;;;;;19.43;10.27;;;7.70;99.90;;;;;;4867337;29;20450;-80
2021/10/26 06:13:06;;;;;;;16.03;10.57;;;7.80;99.90;;;;;;4869628;29;20508;-80
2021/10/26 06:15:34;;;;;;;11.70;10.50;;;7.70;99.90;;;;;;4887615;29;20431;-80
2021/10/26 06:18:06;;;;;;;12.70;10.40;;;7.80;99.90;;;;;;4892447;29;20485;-80
2021/10/26 06:20:33;;;;;;;12.53;10.73;;;7.90;99.90;;;;;;4884220;29;20877;-80
2021/10/26 06:23:01;;;;;;;18.03;10.00;;;7.80;99.90;;;;;;4893698;28;20465;-80
2021/10/26 06:25:27;;;;;;;24.93;10.67;;;7.90;99.90;;;;;;4915461;28;20443;-80
2021/10/26 06:27:53;;;;;;;18.83;8.97;;;7.90;99.90;;;;;;4939202;29;20556;-81
2021/10/26 06:30:19;;;;;;;15.10;10.50;;;7.90;99.90;;;;;;4927812;29;20863;-80
2021/10/26 06:32:47;;;;;;;13.53;10.00;;;7.70;99.90;;;;;;4938003;29;20257;-80
2021/10/26 06:35:17;;;;;;;16.13;13.15;;;7.70;99.90;;;;;;4941385;29;20425;-80
2021/10/26 06:37:44;;;;;;;12.80;11.40;;;7.70;99.90;;;;;;4921054;28;20222;-80
2021/10/26 06:40:12;;;;;;;17.73;12.10;;;7.80;99.90;;;;;;4964808;28;20460;-81
2021/10/26 06:42:39;;;;;;;15.13;9.93;;;7.80;99.90;;;;;;4983060;28;20446;-81
2021/10/26 06:45:05;;;;;;;15.93;11.57;;;7.80;99.90;;;;;;4987071;28;20451;-81
2021/10/26 06:47:31;;;;;;;17.27;10.77;;;7.80;99.90;;;;;;4987363;28;20505;-81
2021/10/26 06:49:57;;;;;;;14.60;10.53;;;7.80;99.90;;;;;;4985820;28;20239;-80
2021/10/26 06:52:24;;;;;;;14.67;10.60;;;7.80;99.90;;;;;;4943132;29;20501;-81
2021/10/26 06:54:50;;;;;;;12.30;10.00;;;7.80;99.90;;;;;;4951195;29;20475;-81
2021/10/26 06:57:17;;;;;;;19.93;10.40;;;7.90;99.90;;;;;;4946466;29;20459;-82
2021/10/26 06:59:43;;;;;;;15.53;12.93;;;7.90;99.90;;;;;;4963620;28;20462;-81
2021/10/26 07:02:09;;;;;;;13.73;9.90;;;8.00;99.90;;;;;;4961129;28;20485;-82
2021/10/26 07:04:36;;;;;;;15.93;11.33;;;8.00;99.90;;;;;;4962378;28;20227;-81
2021/10/26 07:07:03;;;;;;;20.87;12.17;;;7.80;99.90;;;;;;4964458;28;20194;-81
2021/10/26 07:09:29;;;;;;;15.57;11.23;;;8.10;99.90;;;;;;4957798;28;20924;-81
2021/10/26 07:11:55;;;;;;;24.47;11.70;;;8.00;99.90;;;;;;4963972;28;20475;-80
2021/10/26 07:14:21;;;;;;;21.43;13.10;;;8.10;99.90;;;;;;4964510;28;20442;-80
2021/10/26 07:16:47;;;;;;;18.50;12.10;;;8.20;99.90;;;;;;4963444;28;20435;-81
2021/10/26 07:19:14;;;;;;;21.00;11.88;;;8.20;99.90;;;;;;4962300;28;20123;-79
2021/10/26 07:21:41;;;;;;;19.15;13.48;;;8.20;99.90;;;;;;4971956;28;20436;-80
2021/10/26 07:24:08;;;;;;;26.15;15.60;;;8.30;99.90;;;;;;4968363;28;20799;-80
2021/10/26 07:26:35;;;;;;;15.13;11.57;;;8.30;99.90;;;;;;5006828;28;20650;-80
2021/10/26 07:29:00;;;;;;;13.73;10.57;;;8.30;99.90;;;;;;5008679;28;20448;-81
2021/10/26 07:31:27;;;;;;;13.73;11.33;;;8.30;99.90;;;;;;5007456;28;20440;-81
2021/10/26 07:34:01;;;;;;;20.70;11.63;;;8.30;99.90;;;;;;4998889;28;20205;-82
2021/10/26 07:36:38;;;;;;;24.40;12.93;;;8.20;99.90;;;;;;4983457;28;20471;-81
2021/10/26 07:39:29;;;;;;;27.40;13.30;;;8.30;99.90;;;;;;5010192;28;20486;-82
2021/10/26 07:41:58;;;;;;;16.53;11.43;;;8.40;99.90;;;;;;5000160;28;20951;-81
2021/10/26 07:44:25;;;;;;;14.43;11.53;;;8.70;99.90;;;;;;4995849;28;20463;-79
2021/10/26 07:46:51;;;;;;;15.70;12.10;;;8.60;99.90;;;;;;5016506;28;20444;-80
2021/10/26 07:49:36;;;;;;;15.20;11.80;;;8.60;99.90;;;;;;5018331;28;20447;-79
2021/10/26 07:52:04;;;;;;;15.60;12.00;;;8.60;99.90;;;;;;4951154;28;20490;-81
2021/10/26 07:54:30;;;;;;;13.37;10.50;;;8.60;99.90;;;;;;4963415;28;20471;-80
2021/10/26 07:57:00;;;;;;;14.70;12.57;;;8.70;99.90;;;;;;4950098;28;20548;-77
2021/10/26 07:59:27;;;;;;;14.63;11.60;;;8.70;99.90;;;;;;4949662;29;20447;-79
2021/10/26 08:01:55;;;;;;;14.90;11.60;;;8.70;99.90;;;;;;4961698;28;20650;-80
2021/10/26 08:04:21;;;;;;;15.30;10.00;;;8.60;99.90;;;;;;4942158;28;20451;-80
2021/10/26 08:06:48;;;;;;;15.67;12.47;;;8.70;99.90;;;;;;4958598;28;20525;-81
2021/10/26 08:09:15;;;;;;;24.37;12.60;;;8.70;99.90;;;;;;4958927;28;20573;-80
2021/10/26 08:11:41;;;;;;;14.97;10.90;;;8.70;99.90;;;;;;4954902;28;20434;-79
2021/10/26 08:14:07;;;;;;;16.50;13.37;;;8.90;99.90;;;;;;4961122;28;20445;-81
2021/10/26 08:16:33;;;;;;;17.20;11.40;;;9.00;99.90;;;;;;4965715;28;20456;-81
2021/10/26 08:19:00;;;;;;;15.27;12.80;;;9.10;99.90;;;;;;4961060;28;20926;-80
2021/10/26 08:21:27;;;;;;;12.70;10.90;;;9.20;99.90;;;;;;4961540;28;20203;-81
2021/10/26 08:23:54;;;;;;;15.27;11.53;;;9.20;99.90;;;;;;5001901;28;20462;-80
2021/10/26 08:26:28;;;;;;;15.70;12.27;;;9.00;99.90;;;;;;5022980;28;20427;-81
2021/10/26 08:29:05;;;;;;;18.10;13.17;;;9.20;99.90;;;;;;5018685;28;20478;-81
2021/10/26 08:31:42;;;;;;;15.30;11.40;;;9.10;99.90;;;;;;5025631;28;21050;-80
2021/10/26 08:34:13;;;;;;;13.50;11.70;;;9.20;99.90;;;;;;5005705;28;20523;-80
2021/10/26 08:36:39;;;;;;;19.87;13.50;;;9.30;99.90;;;;;;5018277;28;20443;-81
2021/10/26 08:39:07;;;;;;;18.47;11.93;;;9.30;99.90;;;;;;5017171;28;20733;-81
2021/10/26 08:41:37;;;;;;;16.30;13.53;;;9.20;99.90;;;;;;5020593;28;20189;-81
2021/10/26 08:44:04;;;;;;;19.07;13.30;;;9.30;99.90;;;;;;5016479;28;20448;-81
2021/10/26 08:46:31;;;;;;;17.97;14.40;;;9.30;99.90;;;;;;5020862;28;20428;-80
2021/10/26 08:49:00;;;;;;;16.17;12.00;;;9.30;99.90;;;;;;5018373;28;20447;-81
2021/10/26 08:51:27;;;;;;;15.70;12.10;;;9.30;99.90;;;;;;5023773;28;20467;-81
2021/10/26 08:54:13;;;;;;;16.93;12.00;;;9.40;99.90;;;;;;5027458;28;20460;-81
2021/10/26 08:56:40;;;;;;;23.90;15.10;;;9.50;99.90;;;;;;5001913;28;20492;-80
2021/10/26 08:59:08;;;;;;;20.60;13.50;;;9.50;99.90;;;;;;5010499;28;20521;-81
2021/10/26 09:01:34;;;;;;;22.50;14.60;;;9.60;99.90;;;;;;5003177;28;20584;-80
2021/10/26 09:04:09;;;;;;;27.10;16.30;;;9.70;99.90;;;;;;5002444;28;20794;-78
2021/10/26 09:06:46;;;;;;;16.93;13.20;;;9.80;99.90;;;;;;5001056;28;20196;-80
2021/10/26 09:09:18;;;;;;;21.10;14.97;;;9.80;99.90;;;;;;5000334;28;21055;-80
2021/10/26 09:17:11;;;;;;;23.30;15.73;;;9.80;99.90;;;;;;5003993;28;20425;-81
2021/10/26 09:19:44;;;;;;;17.57;12.53;;;9.70;99.90;;;;;;5005842;28;20480;-80
2021/10/26 09:22:15;;;;;;;16.67;12.97;;;9.80;99.90;;;;;;4991471;28;20225;-79
2021/10/26 09:24:56;;;;;;;14.80;12.20;;;9.80;99.90;;;;;;4956412;28;20439;-79
2021/10/26 09:27:22;;;;;;;21.80;14.43;;;9.70;99.90;;;;;;5013750;28;20446;-81
2021/10/26 09:29:51;;;;;;;21.10;13.03;;;9.70;99.90;;;;;;5009414;28;20568;-80
2021/10/26 09:32:22;;;;;;;15.23;13.13;;;9.80;99.90;;;;;;5022934;28;20531;-81
2021/10/26 09:34:53;;;;;;;18.40;13.23;;;9.80;99.90;;;;;;5025450;28;20451;-80
2021/10/26 09:37:20;;;;;;;25.87;14.50;;;9.80;99.90;;;;;;5007858;28;20475;-80
2021/10/26 09:40:08;;;;;;;17.20;13.63;;;9.80;99.90;;;;;;5002956;28;20476;-81
2021/10/26 09:42:44;;;;;;;16.63;13.37;;;10.00;99.90;;;;;;4989131;28;20444;-80
2021/10/26 09:45:24;;;;;;;19.77;13.90;;;9.90;99.90;;;;;;4982031;28;20575;-79
2021/10/26 09:47:57;;;;;;;22.60;14.80;;;10.00;99.90;;;;;;4999149;28;20428;-80
2021/10/26 09:50:31;;;;;;;20.03;16.73;;;10.10;99.90;;;;;;4981310;28;20948;-78
2021/10/26 09:53:05;;;;;;;21.37;16.80;;;10.20;99.90;;;;;;4999049;28;20515;-82
2021/10/26 09:55:38;;;;;;;16.07;12.97;;;10.20;99.90;;;;;;4996756;28;20437;-81
2021/10/26 09:58:08;;;;;;;17.23;12.63;;;10.20;99.90;;;;;;4998185;28;20425;-80
2021/10/26 10:00:38;;;;;;;21.63;14.77;;;10.20;99.90;;;;;;4981851;28;20438;-80
2021/10/26 10:03:11;;;;;;;22.27;13.33;;;10.40;99.90;;;;;;5004771;28;20428;-80
2021/10/26 10:05:55;;;;;;;17.23;13.60;;;10.50;99.90;;;;;;4982524;28;20445;-79
2021/10/26 10:08:24;;;;;;;19.60;12.57;;;10.60;99.90;;;;;;4988303;28;20507;-79
2021/10/26 10:10:52;;;;;;;17.70;12.87;;;10.60;99.90;;;;;;5011001;28;20446;-81
2021/10/26 10:13:18;;;;;;;15.60;12.70;;;10.70;99.90;;;;;;5009287;28;20460;-79
2021/10/26 10:15:46;;;;;;;18.73;13.40;;;10.90;99.90;;;;;;5028432;28;20433;-81
2021/10/26 10:18:16;;;;;;;17.37;14.20;;;11.10;99.90;;;;;;5009192;28;20437;-80
2021/10/26 10:20:45;;;;;;;17.53;13.43;;;11.20;99.90;;;;;;5015901;28;20459;-81
2021/10/26 10:23:12;;;;;;;19.80;12.83;;;11.10;99.90;;;;;;5006069;28;20733;-80
2021/10/26 10:25:42;;;;;;;20.33;13.27;;;11.10;99.90;;;;;;5024868;28;20467;-81
2021/10/26 10:28:09;;;;;;;14.37;12.03;;;11.10;99.90;;;;;;5026034;28;20459;-81
2021/10/26 10:30:37;;;;;;;45.83;27.03;;;11.10;99.90;;;;;;5006969;28;20432;-80
2021/10/26 10:33:03;;;;;;;22.00;13.10;;;11.30;99.90;;;;;;5026019;28;20484;-81
2021/10/26 10:35:30;;;;;;;17.90;12.80;;;11.50;99.90;;;;;;5007787;28;20490;-81
2021/10/26 10:37:58;;;;;;;18.40;10.90;;;11.60;99.90;;;;;;5012875;28;20480;-78
2021/10/26 10:40:31;;;;;;;11.27;10.13;;;11.80;99.90;;;;;;4979426;28;20451;-80
2021/10/26 10:42:58;;;;;;;12.17;10.97;;;11.80;99.90;;;;;;4961891;28;20527;-81
2021/10/26 10:45:32;;;;;;;15.83;11.73;;;11.90;99.90;;;;;;4965091;28;20445;-80
2021/10/26 10:47:59;;;;;;;18.37;13.10;;;11.80;99.90;;;;;;4967029;28;20449;-81
2021/10/26 10:50:31;;;;;;;13.30;11.20;;;11.50;99.90;;;;;;4968744;28;20450;-80
2021/10/26 10:53:18;;;;;;;15.73;12.50;;;11.70;99.90;;;;;;4964316;28;20518;-81
2021/10/26 10:55:50;;;;;;;16.50;13.83;;;11.70;99.90;;;;;;4964063;29;20780;-80
2021/10/26 10:58:42;;;;;;;18.43;11.40;;;11.50;99.90;;;;;;4964739;28;20457;-80
2021/10/26 11:01:26;;;;;;;16.33;13.18;;;11.50;99.90;;;;;;4962368;28;20442;-79
2021/10/26 11:03:54;;;;;;;16.10;12.17;;;11.50;99.90;;;;;;4960727;28;20649;-78
2021/10/26 11:06:55;;;;;;;18.57;12.00;;;11.70;99.90;;;;;;4965645;28;20438;-80
2021/10/26 11:09:40;;;;;;;14.37;12.30;;;11.70;99.90;;;;;;4962992;28;20552;-83
2021/10/26 11:12:12;;;;;;;23.73;12.13;;;11.70;99.90;;;;;;4996515;28;20966;-80
2021/10/26 11:14:56;;;;;;;17.80;11.57;;;11.70;99.90;;;;;;5010907;28;20479;-82
2021/10/26 11:17:50;;;;;;;11.10;8.70;;;11.70;99.90;;;;;;4982433;28;20457;-81
2021/10/26 11:20:42;;;;;;;12.70;10.20;;;11.80;99.90;;;;;;5008361;28;20409;-81
2021/10/26 11:23:14;;;;;;;12.37;9.27;;;11.90;99.90;;;;;;5004648;28;20433;-81
2021/10/26 11:25:42;;;;;;;15.40;9.77;;;12.10;99.90;;;;;;5006730;28;20481;-81
2021/10/26 11:28:34;;;;;;;13.70;8.40;;;12.10;99.90;;;;;;5009805;28;20515;-81
2021/10/26 11:31:04;;;;;;;8.70;7.63;;;12.30;99.90;;;;;;4992009;28;20433;-80
2021/10/26 11:33:32;;;;;;;8.03;7.23;;;12.40;99.90;;;;;;5004968;28;20467;-80
2021/10/26 11:36:08;;;;;;;7.63;6.00;;;12.50;99.90;;;;;;5010989;28;20542;-80
2021/10/26 11:38:38;;;;;;;7.60;5.80;;;12.60;99.90;;;;;;5006983;28;20467;-80
2021/10/26 11:41:11;;;;;;;6.13;5.10;;;12.60;99.90;;;;;;5008592;28;20464;-80
2021/10/26 11:43:58;;;;;;;6.30;4.80;;;12.70;99.90;;;;;;4972407;28;20446;-80
2021/10/26 11:46:32;;;;;;;5.30;4.67;;;12.70;99.90;;;;;;4953276;28;20430;-77
2021/10/26 11:49:09;;;;;;;4.77;4.37;;;12.80;99.90;;;;;;4974025;28;20446;-79
2021/10/26 11:51:44;;;;;;;5.87;4.10;;;12.80;99.90;;;;;;4973682;28;20444;-79
2021/10/26 11:54:21;;;;;;;5.20;4.27;;;13.00;99.90;;;;;;4949491;28;20520;-79
2021/10/26 11:57:05;;;;;;;6.00;4.63;;;13.00;99.90;;;;;;4955103;28;20496;-80
2021/10/26 11:59:34;;;;;;;8.00;4.43;;;13.10;99.90;;;;;;4951400;28;20441;-80
2021/10/26 12:02:10;;;;;;;3.50;3.20;;;13.10;99.90;;;;;;4965036;28;20541;-79
2021/10/26 12:04:56;;;;;;;4.90;3.57;;;13.10;99.90;;;;;;4956467;28;20440;-81
2021/10/26 12:07:27;;;;;;;3.90;3.53;;;13.10;99.90;;;;;;4982676;28;20456;-81
2021/10/26 12:09:57;;;;;;;6.10;3.60;;;13.10;99.90;;;;;;4981427;28;20528;-80
2021/10/26 12:12:28;;;;;;;8.40;3.40;;;13.10;99.90;;;;;;4950938;28;20476;-79
2021/10/26 12:15:00;;;;;;;3.87;3.50;;;12.90;99.90;;;;;;4982595;28;20445;-79
2021/10/26 12:17:30;;;;;;;4.93;3.93;;;13.10;99.90;;;;;;4953149;28;20426;-82
2021/10/26 12:20:05;;;;;;;5.50;3.47;;;13.10;99.90;;;;;;4970896;28;20438;-79
2021/10/26 12:22:36;;;;;;;5.27;4.50;;;13.10;99.90;;;;;;4986529;28;20465;-79
2021/10/26 12:25:12;;;;;;;5.53;4.10;;;13.10;99.90;;;;;;4988734;28;20434;-81
2021/10/26 12:27:42;;;;;;;3.87;3.30;;;13.00;99.90;;;;;;4989504;28;20457;-81
2021/10/26 12:30:16;;;;;;;4.80;4.13;;;13.10;99.90;;;;;;4969893;28;20445;-79
2021/10/26 12:32:50;;;;;;;4.70;4.20;;;13.10;99.90;;;;;;4989489;28;20463;-80
2021/10/26 12:35:16;;;;;;;4.70;4.13;;;13.10;99.90;;;;;;4993392;28;20444;-80
2021/10/26 12:37:43;;;;;;;6.80;6.20;;;13.20;99.90;;;;;;5005605;28;20595;-82
2021/10/26 12:40:20;;;;;;;5.70;3.40;;;13.20;99.90;;;;;;4956951;28;20190;-81
2021/10/26 12:42:50;;;;;;;3.90;3.53;;;13.20;99.90;;;;;;4997241;28;20440;-80
2021/10/26 12:45:18;;;;;;;4.43;4.07;;;13.20;99.90;;;;;;4998092;28;20449;-83
2021/10/26 12:47:54;;;;;;;4.67;3.87;;;13.10;99.90;;;;;;4998844;28;20492;-80
2021/10/26 12:50:41;;;;;;;4.03;3.60;;;13.10;99.90;;;;;;5000337;28;20562;-81
2021/10/26 12:53:33;;;;;;;3.93;2.93;;;13.20;99.90;;;;;;4979171;28;20538;-82
2021/10/26 12:56:15;;;;;;;5.00;4.50;;;13.30;99.90;;;;;;5006096;28;20634;-80
2021/10/26 12:59:17;;;;;;;6.47;3.40;;;13.60;99.90;;;;;;4973224;28;20456;-81
2021/10/26 13:01:47;;;;;;;7.33;3.97;;;13.80;99.90;;;;;;4984029;28;20434;-81